sensor_id;sensor_type;location;lat;lon;timestamp;P1;durP1;ratioP1;P2;durP2;ratioP2
63259;SDS011;49390;51.380;0.098;2022-11-03T00:02:17;15.38;;;3.72;;
63259;SDS011;49390;51.380;0.098;2022-11-03T00:04:46;10.52;;;3.28;;
63259;SDS011;49390;51.380;0.098;2022-11-03T00:07:20;13.35;;;3.00;;
63259;SDS011;49390;51.380;0.098;2022-11-03T00:09:49;10.48;;;2.83;;
63259;SDS011;49390;51.380;0.098;2022-11-03T00:12:19;12.32;;;2.90;;
63259;SDS011;49390;51.380;0.098;2022-11-03T00:14:49;12.93;;;2.72;;
63259;SDS011;49390;51.380;0.098;2022-11-03T00:17:17;11.90;;;2.67;;
63259;SDS011;49390;51.380;0.098;2022-11-03T00:19:45;8.48;;;2.50;;
63259;SDS011;49390;51.380;0.098;2022-11-03T00:22:13;7.35;;;2.38;;
63259;SDS011;49390;51.380;0.098;2022-11-03T00:24:42;9.50;;;2.70;;
63259;SDS011;49390;51.380;0.098;2022-11-03T00:27:09;8.93;;;2.72;;
63259;SDS011;49390;51.380;0.098;2022-11-03T00:29:37;9.18;;;2.28;;
63259;SDS011;49390;51.380;0.098;2022-11-03T00:32:05;8.57;;;2.13;;
63259;SDS011;49390;51.380;0.098;2022-11-03T00:34:33;7.30;;;3.03;;
63259;SDS011;49390;51.380;0.098;2022-11-03T00:37:01;8.40;;;2.20;;
63259;SDS011;49390;51.380;0.098;2022-11-03T00:39:30;5.88;;;1.90;;
63259;SDS011;49390;51.380;0.098;2022-11-03T00:41:58;6.50;;;2.03;;
63259;SDS011;49390;51.380;0.098;2022-11-03T00:44:27;8.85;;;2.33;;
63259;SDS011;49390;51.380;0.098;2022-11-03T00:46:55;8.02;;;2.00;;
63259;SDS011;49390;51.380;0.098;2022-11-03T00:49:23;7.13;;;2.13;;
63259;SDS011;49390;51.380;0.098;2022-11-03T00:51:51;9.85;;;2.25;;
63259;SDS011;49390;51.380;0.098;2022-11-03T00:54:20;6.68;;;2.03;;
63259;SDS011;49390;51.380;0.098;2022-11-03T00:56:47;8.07;;;1.92;;
63259;SDS011;49390;51.380;0.098;2022-11-03T00:59:16;7.82;;;2.15;;
63259;SDS011;49390;51.380;0.098;2022-11-03T01:01:44;6.95;;;2.13;;
63259;SDS011;49390;51.380;0.098;2022-11-03T01:04:14;6.32;;;1.90;;
63259;SDS011;49390;51.380;0.098;2022-11-03T01:07:03;3.90;;;1.70;;
63259;SDS011;49390;51.380;0.098;2022-11-03T01:12:13;5.90;;;1.60;;
63259;SDS011;49390;51.380;0.098;2022-11-03T01:14:49;4.57;;;1.75;;
63259;SDS011;49390;51.380;0.098;2022-11-03T01:17:23;4.88;;;1.90;;
63259;SDS011;49390;51.380;0.098;2022-11-03T01:19:54;5.70;;;1.83;;
63259;SDS011;49390;51.380;0.098;2022-11-03T01:22:22;8.95;;;1.50;;
63259;SDS011;49390;51.380;0.098;2022-11-03T01:24:51;4.25;;;1.40;;
63259;SDS011;49390;51.380;0.098;2022-11-03T01:27:19;5.25;;;1.30;;
63259;SDS011;49390;51.380;0.098;2022-11-03T01:29:49;3.58;;;1.27;;
63259;SDS011;49390;51.380;0.098;2022-11-03T01:32:17;3.45;;;1.63;;
63259;SDS011;49390;51.380;0.098;2022-11-03T01:34:45;4.47;;;1.58;;
63259;SDS011;49390;51.380;0.098;2022-11-03T01:37:13;2.97;;;1.23;;
63259;SDS011;49390;51.380;0.098;2022-11-03T01:39:49;3.10;;;1.33;;
63259;SDS011;49390;51.380;0.098;2022-11-03T01:42:17;3.40;;;1.40;;
63259;SDS011;49390;51.380;0.098;2022-11-03T01:44:45;3.72;;;1.45;;
63259;SDS011;49390;51.380;0.098;2022-11-03T01:47:19;1.45;;;1.13;;
63259;SDS011;49390;51.380;0.098;2022-11-03T01:49:58;2.85;;;1.35;;
63259;SDS011;49390;51.380;0.098;2022-11-03T01:52:39;4.72;;;1.20;;
63259;SDS011;49390;51.380;0.098;2022-11-03T01:55:23;6.15;;;1.38;;
63259;SDS011;49390;51.380;0.098;2022-11-03T01:57:56;1.42;;;1.00;;
63259;SDS011;49390;51.380;0.098;2022-11-03T02:00:31;3.95;;;1.60;;
63259;SDS011;49390;51.380;0.098;2022-11-03T02:02:59;4.10;;;1.35;;
63259;SDS011;49390;51.380;0.098;2022-11-03T02:05:28;3.63;;;1.20;;
63259;SDS011;49390;51.380;0.098;2022-11-03T02:08:07;1.70;;;1.15;;
63259;SDS011;49390;51.380;0.098;2022-11-03T02:10:41;3.45;;;1.30;;
63259;SDS011;49390;51.380;0.098;2022-11-03T02:13:16;6.25;;;1.33;;
63259;SDS011;49390;51.380;0.098;2022-11-03T02:15:51;8.38;;;1.73;;
63259;SDS011;49390;51.380;0.098;2022-11-03T02:18:23;2.42;;;1.08;;
63259;SDS011;49390;51.380;0.098;2022-11-03T02:21:30;1.73;;;0.70;;
63259;SDS011;49390;51.380;0.098;2022-11-03T02:24:17;7.10;;;1.70;;
63259;SDS011;49390;51.380;0.098;2022-11-03T02:26:56;1.63;;;1.00;;
63259;SDS011;49390;51.380;0.098;2022-11-03T02:29:24;6.10;;;1.60;;
63259;SDS011;49390;51.380;0.098;2022-11-03T02:31:55;2.83;;;1.20;;
63259;SDS011;49390;51.380;0.098;2022-11-03T02:34:51;4.88;;;2.00;;
63259;SDS011;49390;51.380;0.098;2022-11-03T02:37:34;6.20;;;1.77;;
63259;SDS011;49390;51.380;0.098;2022-11-03T02:40:07;2.45;;;1.27;;
63259;SDS011;49390;51.380;0.098;2022-11-03T02:42:41;4.50;;;1.48;;
63259;SDS011;49390;51.380;0.098;2022-11-03T02:45:14;7.90;;;1.50;;
63259;SDS011;49390;51.380;0.098;2022-11-03T02:49:49;8.73;;;2.15;;
63259;SDS011;49390;51.380;0.098;2022-11-03T02:52:42;8.18;;;2.20;;
63259;SDS011;49390;51.380;0.098;2022-11-03T03:00:50;7.03;;;1.80;;
63259;SDS011;49390;51.380;0.098;2022-11-03T03:06:37;8.02;;;2.30;;
63259;SDS011;49390;51.380;0.098;2022-11-03T03:09:11;8.65;;;2.20;;
63259;SDS011;49390;51.380;0.098;2022-11-03T03:11:48;10.77;;;2.55;;
63259;SDS011;49390;51.380;0.098;2022-11-03T03:14:24;10.48;;;2.80;;
63259;SDS011;49390;51.380;0.098;2022-11-03T03:17:17;11.88;;;2.80;;
63259;SDS011;49390;51.380;0.098;2022-11-03T03:20:03;13.63;;;2.65;;
63259;SDS011;49390;51.380;0.098;2022-11-03T03:22:34;14.43;;;2.70;;
63259;SDS011;49390;51.380;0.098;2022-11-03T03:25:42;18.10;;;2.80;;
63259;SDS011;49390;51.380;0.098;2022-11-03T03:28:23;15.27;;;3.10;;
63259;SDS011;49390;51.380;0.098;2022-11-03T03:31:07;16.50;;;3.05;;
63259;SDS011;49390;51.380;0.098;2022-11-03T03:33:41;12.35;;;3.42;;
63259;SDS011;49390;51.380;0.098;2022-11-03T03:36:15;16.95;;;4.15;;
63259;SDS011;49390;51.380;0.098;2022-11-03T03:38:52;12.48;;;2.92;;
63259;SDS011;49390;51.380;0.098;2022-11-03T03:41:27;10.50;;;3.00;;
63259;SDS011;49390;51.380;0.098;2022-11-03T03:43:59;16.17;;;3.20;;
63259;SDS011;49390;51.380;0.098;2022-11-03T03:46:35;10.65;;;2.58;;
63259;SDS011;49390;51.380;0.098;2022-11-03T03:49:07;10.82;;;2.53;;
63259;SDS011;49390;51.380;0.098;2022-11-03T03:51:36;12.30;;;2.63;;
63259;SDS011;49390;51.380;0.098;2022-11-03T03:54:06;14.52;;;3.13;;
63259;SDS011;49390;51.380;0.098;2022-11-03T03:59:05;10.63;;;3.47;;
63259;SDS011;49390;51.380;0.098;2022-11-03T04:01:33;13.52;;;2.95;;
63259;SDS011;49390;51.380;0.098;2022-11-03T04:04:02;12.43;;;3.03;;
63259;SDS011;49390;51.380;0.098;2022-11-03T04:06:31;13.95;;;2.80;;
63259;SDS011;49390;51.380;0.098;2022-11-03T04:08:59;14.73;;;2.78;;
63259;SDS011;49390;51.380;0.098;2022-11-03T04:11:27;12.60;;;3.47;;
63259;SDS011;49390;51.380;0.098;2022-11-03T04:14:14;8.82;;;2.90;;
63259;SDS011;49390;51.380;0.098;2022-11-03T04:17:00;8.57;;;2.28;;
63259;SDS011;49390;51.380;0.098;2022-11-03T04:19:46;8.07;;;2.50;;
63259;SDS011;49390;51.380;0.098;2022-11-03T04:22:33;7.60;;;2.40;;
63259;SDS011;49390;51.380;0.098;2022-11-03T04:25:01;9.43;;;2.50;;
63259;SDS011;49390;51.380;0.098;2022-11-03T04:27:30;7.53;;;3.10;;
63259;SDS011;49390;51.380;0.098;2022-11-03T04:32:45;10.88;;;2.80;;
63259;SDS011;49390;51.380;0.098;2022-11-03T04:35:16;7.00;;;2.25;;
63259;SDS011;49390;51.380;0.098;2022-11-03T04:38:00;8.48;;;2.50;;
63259;SDS011;49390;51.380;0.098;2022-11-03T04:40:31;12.43;;;2.47;;
63259;SDS011;49390;51.380;0.098;2022-11-03T04:43:00;14.18;;;2.50;;
63259;SDS011;49390;51.380;0.098;2022-11-03T04:45:31;7.60;;;2.90;;
63259;SDS011;49390;51.380;0.098;2022-11-03T04:48:11;6.53;;;2.17;;
63259;SDS011;49390;51.380;0.098;2022-11-03T04:50:41;6.05;;;2.00;;
63259;SDS011;49390;51.380;0.098;2022-11-03T04:55:43;9.57;;;1.92;;
63259;SDS011;49390;51.380;0.098;2022-11-03T05:00:55;4.22;;;2.10;;
63259;SDS011;49390;51.380;0.098;2022-11-03T05:03:28;7.70;;;2.22;;
63259;SDS011;49390;51.380;0.098;2022-11-03T05:06:00;8.60;;;2.08;;
63259;SDS011;49390;51.380;0.098;2022-11-03T05:08:36;5.15;;;2.38;;
63259;SDS011;49390;51.380;0.098;2022-11-03T05:11:11;6.80;;;1.98;;
63259;SDS011;49390;51.380;0.098;2022-11-03T05:13:47;7.05;;;1.95;;
63259;SDS011;49390;51.380;0.098;2022-11-03T05:18:47;5.95;;;1.65;;
63259;SDS011;49390;51.380;0.098;2022-11-03T05:21:18;7.90;;;1.80;;
63259;SDS011;49390;51.380;0.098;2022-11-03T05:23:49;10.48;;;2.30;;
63259;SDS011;49390;51.380;0.098;2022-11-03T05:26:32;8.88;;;2.20;;
63259;SDS011;49390;51.380;0.098;2022-11-03T05:31:40;8.27;;;2.10;;
63259;SDS011;49390;51.380;0.098;2022-11-03T05:36:59;7.93;;;2.50;;
63259;SDS011;49390;51.380;0.098;2022-11-03T05:39:36;13.35;;;3.03;;
63259;SDS011;49390;51.380;0.098;2022-11-03T05:44:56;9.45;;;2.50;;
63259;SDS011;49390;51.380;0.098;2022-11-03T05:47:30;10.23;;;2.45;;
63259;SDS011;49390;51.380;0.098;2022-11-03T05:50:10;10.75;;;2.90;;
63259;SDS011;49390;51.380;0.098;2022-11-03T05:52:40;9.48;;;2.50;;
63259;SDS011;49390;51.380;0.098;2022-11-03T05:55:24;12.68;;;3.05;;
63259;SDS011;49390;51.380;0.098;2022-11-03T05:57:58;9.27;;;3.30;;
63259;SDS011;49390;51.380;0.098;2022-11-03T06:03:43;9.27;;;3.08;;
63259;SDS011;49390;51.380;0.098;2022-11-03T06:06:35;14.43;;;3.85;;
63259;SDS011;49390;51.380;0.098;2022-11-03T06:09:15;19.73;;;4.40;;
63259;SDS011;49390;51.380;0.098;2022-11-03T06:11:51;16.20;;;3.58;;
63259;SDS011;49390;51.380;0.098;2022-11-03T06:16:55;12.57;;;3.55;;
63259;SDS011;49390;51.380;0.098;2022-11-03T06:19:30;17.00;;;3.63;;
63259;SDS011;49390;51.380;0.098;2022-11-03T06:25:11;9.63;;;2.72;;
63259;SDS011;49390;51.380;0.098;2022-11-03T06:27:49;9.95;;;2.15;;
63259;SDS011;49390;51.380;0.098;2022-11-03T06:30:26;6.38;;;2.22;;
63259;SDS011;49390;51.380;0.098;2022-11-03T06:36:21;5.32;;;1.52;;
63259;SDS011;49390;51.380;0.098;2022-11-03T06:38:55;4.63;;;1.40;;
63259;SDS011;49390;51.380;0.098;2022-11-03T06:41:27;4.10;;;1.58;;
63259;SDS011;49390;51.380;0.098;2022-11-03T06:44:00;5.00;;;1.38;;
63259;SDS011;49390;51.380;0.098;2022-11-03T06:46:30;2.72;;;1.40;;
63259;SDS011;49390;51.380;0.098;2022-11-03T06:49:02;6.32;;;1.90;;
63259;SDS011;49390;51.380;0.098;2022-11-03T06:51:57;6.68;;;1.73;;
63259;SDS011;49390;51.380;0.098;2022-11-03T06:54:34;9.75;;;1.92;;
63259;SDS011;49390;51.380;0.098;2022-11-03T06:57:05;7.15;;;1.65;;
63259;SDS011;49390;51.380;0.098;2022-11-03T06:59:39;9.00;;;1.92;;
63259;SDS011;49390;51.380;0.098;2022-11-03T07:02:21;8.27;;;2.67;;
63259;SDS011;49390;51.380;0.098;2022-11-03T07:05:23;10.13;;;3.28;;
63259;SDS011;49390;51.380;0.098;2022-11-03T07:07:57;7.30;;;2.17;;
63259;SDS011;49390;51.380;0.098;2022-11-03T07:10:28;10.52;;;2.67;;
63259;SDS011;49390;51.380;0.098;2022-11-03T07:13:00;6.32;;;2.20;;
63259;SDS011;49390;51.380;0.098;2022-11-03T07:15:37;8.25;;;2.05;;
63259;SDS011;49390;51.380;0.098;2022-11-03T07:24:18;9.23;;;2.30;;
63259;SDS011;49390;51.380;0.098;2022-11-03T07:26:59;5.82;;;2.55;;
63259;SDS011;49390;51.380;0.098;2022-11-03T07:29:56;8.85;;;2.33;;
63259;SDS011;49390;51.380;0.098;2022-11-03T07:32:36;10.10;;;2.30;;
63259;SDS011;49390;51.380;0.098;2022-11-03T07:38:34;11.73;;;2.60;;
63259;SDS011;49390;51.380;0.098;2022-11-03T07:41:03;11.25;;;2.28;;
63259;SDS011;49390;51.380;0.098;2022-11-03T07:43:33;8.73;;;2.10;;
63259;SDS011;49390;51.380;0.098;2022-11-03T07:46:10;9.13;;;2.25;;
63259;SDS011;49390;51.380;0.098;2022-11-03T07:48:44;7.85;;;1.95;;
63259;SDS011;49390;51.380;0.098;2022-11-03T07:57:05;12.05;;;3.13;;
63259;SDS011;49390;51.380;0.098;2022-11-03T07:59:45;15.90;;;3.33;;
63259;SDS011;49390;51.380;0.098;2022-11-03T08:02:36;10.93;;;3.70;;
63259;SDS011;49390;51.380;0.098;2022-11-03T08:05:28;7.70;;;2.83;;
63259;SDS011;49390;51.380;0.098;2022-11-03T08:08:00;7.05;;;2.47;;
63259;SDS011;49390;51.380;0.098;2022-11-03T08:10:31;6.15;;;2.65;;
63259;SDS011;49390;51.380;0.098;2022-11-03T08:12:59;8.40;;;2.15;;
63259;SDS011;49390;51.380;0.098;2022-11-03T08:15:28;7.35;;;2.35;;
63259;SDS011;49390;51.380;0.098;2022-11-03T08:18:00;6.90;;;2.00;;
63259;SDS011;49390;51.380;0.098;2022-11-03T08:20:30;7.22;;;1.83;;
63259;SDS011;49390;51.380;0.098;2022-11-03T08:23:01;9.30;;;2.10;;
63259;SDS011;49390;51.380;0.098;2022-11-03T08:25:49;6.53;;;2.00;;
63259;SDS011;49390;51.380;0.098;2022-11-03T08:28:18;7.95;;;2.17;;
63259;SDS011;49390;51.380;0.098;2022-11-03T08:30:47;9.30;;;2.45;;
63259;SDS011;49390;51.380;0.098;2022-11-03T08:33:16;6.88;;;2.03;;
63259;SDS011;49390;51.380;0.098;2022-11-03T08:35:45;6.60;;;2.47;;
63259;SDS011;49390;51.380;0.098;2022-11-03T08:38:15;6.05;;;2.20;;
63259;SDS011;49390;51.380;0.098;2022-11-03T08:40:45;6.50;;;2.20;;
63259;SDS011;49390;51.380;0.098;2022-11-03T08:43:24;5.68;;;1.70;;
63259;SDS011;49390;51.380;0.098;2022-11-03T08:45:52;8.52;;;2.33;;
63259;SDS011;49390;51.380;0.098;2022-11-03T08:48:22;6.30;;;2.00;;
63259;SDS011;49390;51.380;0.098;2022-11-03T08:50:58;5.43;;;2.40;;
63259;SDS011;49390;51.380;0.098;2022-11-03T08:53:27;4.93;;;1.92;;
63259;SDS011;49390;51.380;0.098;2022-11-03T08:55:58;7.60;;;2.60;;
63259;SDS011;49390;51.380;0.098;2022-11-03T08:58:27;4.97;;;2.00;;
63259;SDS011;49390;51.380;0.098;2022-11-03T09:00:56;6.75;;;1.77;;
63259;SDS011;49390;51.380;0.098;2022-11-03T09:03:25;5.28;;;1.90;;
63259;SDS011;49390;51.380;0.098;2022-11-03T09:05:55;6.50;;;2.10;;
63259;SDS011;49390;51.380;0.098;2022-11-03T09:08:24;4.05;;;2.50;;
63259;SDS011;49390;51.380;0.098;2022-11-03T09:11:15;5.65;;;1.85;;
63259;SDS011;49390;51.380;0.098;2022-11-03T09:13:44;5.32;;;1.70;;
63259;SDS011;49390;51.380;0.098;2022-11-03T09:16:13;7.20;;;2.33;;
63259;SDS011;49390;51.380;0.098;2022-11-03T09:18:45;9.50;;;1.85;;
63259;SDS011;49390;51.380;0.098;2022-11-03T09:21:13;5.30;;;1.90;;
63259;SDS011;49390;51.380;0.098;2022-11-03T09:23:41;13.25;;;2.35;;
63259;SDS011;49390;51.380;0.098;2022-11-03T09:26:12;6.97;;;2.08;;
63259;SDS011;49390;51.380;0.098;2022-11-03T09:28:43;8.57;;;1.67;;
63259;SDS011;49390;51.380;0.098;2022-11-03T09:31:12;7.60;;;2.75;;
63259;SDS011;49390;51.380;0.098;2022-11-03T09:33:40;5.55;;;1.90;;
63259;SDS011;49390;51.380;0.098;2022-11-03T09:36:11;2.33;;;1.67;;
63259;SDS011;49390;51.380;0.098;2022-11-03T09:38:39;8.25;;;2.20;;
63259;SDS011;49390;51.380;0.098;2022-11-03T09:41:08;7.22;;;2.53;;
63259;SDS011;49390;51.380;0.098;2022-11-03T09:43:55;7.35;;;2.63;;
63259;SDS011;49390;51.380;0.098;2022-11-03T09:46:28;9.35;;;2.78;;
63259;SDS011;49390;51.380;0.098;2022-11-03T09:48:57;8.70;;;2.42;;
63259;SDS011;49390;51.380;0.098;2022-11-03T09:51:26;5.55;;;2.40;;
63259;SDS011;49390;51.380;0.098;2022-11-03T09:53:55;17.30;;;3.75;;
63259;SDS011;49390;51.380;0.098;2022-11-03T09:56:26;9.82;;;2.60;;
63259;SDS011;49390;51.380;0.098;2022-11-03T09:58:59;7.82;;;2.45;;
63259;SDS011;49390;51.380;0.098;2022-11-03T10:01:31;6.82;;;2.30;;
63259;SDS011;49390;51.380;0.098;2022-11-03T10:06:25;5.82;;;2.20;;
63259;SDS011;49390;51.380;0.098;2022-11-03T10:08:54;7.40;;;2.40;;
63259;SDS011;49390;51.380;0.098;2022-11-03T10:11:23;8.23;;;2.30;;
63259;SDS011;49390;51.380;0.098;2022-11-03T10:13:52;12.13;;;2.63;;
63259;SDS011;49390;51.380;0.098;2022-11-03T10:16:23;7.50;;;2.40;;
63259;SDS011;49390;51.380;0.098;2022-11-03T10:18:53;6.10;;;2.38;;
63259;SDS011;49390;51.380;0.098;2022-11-03T10:21:28;6.93;;;2.03;;
63259;SDS011;49390;51.380;0.098;2022-11-03T10:23:59;6.93;;;2.10;;
63259;SDS011;49390;51.380;0.098;2022-11-03T10:26:27;5.50;;;2.20;;
63259;SDS011;49390;51.380;0.098;2022-11-03T10:29:03;6.13;;;1.90;;
63259;SDS011;49390;51.380;0.098;2022-11-03T10:31:36;5.95;;;1.95;;
63259;SDS011;49390;51.380;0.098;2022-11-03T10:37:22;7.55;;;2.20;;
63259;SDS011;49390;51.380;0.098;2022-11-03T10:39:55;4.97;;;2.80;;
63259;SDS011;49390;51.380;0.098;2022-11-03T10:42:26;9.27;;;2.35;;
63259;SDS011;49390;51.380;0.098;2022-11-03T10:45:18;5.05;;;2.20;;
63259;SDS011;49390;51.380;0.098;2022-11-03T10:48:00;8.45;;;2.63;;
63259;SDS011;49390;51.380;0.098;2022-11-03T10:50:32;4.72;;;2.50;;
63259;SDS011;49390;51.380;0.098;2022-11-03T10:53:00;6.93;;;2.40;;
63259;SDS011;49390;51.380;0.098;2022-11-03T10:55:33;6.80;;;2.70;;
63259;SDS011;49390;51.380;0.098;2022-11-03T10:58:01;5.72;;;2.42;;
63259;SDS011;49390;51.380;0.098;2022-11-03T11:00:30;7.50;;;2.80;;
63259;SDS011;49390;51.380;0.098;2022-11-03T11:02:59;7.97;;;2.50;;
63259;SDS011;49390;51.380;0.098;2022-11-03T11:05:31;7.28;;;2.72;;
63259;SDS011;49390;51.380;0.098;2022-11-03T11:07:59;7.10;;;2.38;;
63259;SDS011;49390;51.380;0.098;2022-11-03T11:10:29;6.80;;;2.80;;
63259;SDS011;49390;51.380;0.098;2022-11-03T11:15:49;6.07;;;2.45;;
63259;SDS011;49390;51.380;0.098;2022-11-03T11:20:57;6.40;;;2.50;;
63259;SDS011;49390;51.380;0.098;2022-11-03T11:28:41;7.68;;;2.67;;
63259;SDS011;49390;51.380;0.098;2022-11-03T11:31:34;8.38;;;3.58;;
63259;SDS011;49390;51.380;0.098;2022-11-03T11:36:37;6.63;;;2.58;;
63259;SDS011;49390;51.380;0.098;2022-11-03T11:47:33;7.88;;;2.72;;
63259;SDS011;49390;51.380;0.098;2022-11-03T11:52:41;13.80;;;6.25;;
63259;SDS011;49390;51.380;0.098;2022-11-03T11:55:30;7.72;;;3.58;;
63259;SDS011;49390;51.380;0.098;2022-11-03T12:01:05;9.88;;;4.00;;
63259;SDS011;49390;51.380;0.098;2022-11-03T12:04:14;11.00;;;4.93;;
63259;SDS011;49390;51.380;0.098;2022-11-03T12:06:49;9.52;;;4.40;;
63259;SDS011;49390;51.380;0.098;2022-11-03T12:09:18;8.85;;;4.35;;
63259;SDS011;49390;51.380;0.098;2022-11-03T12:11:55;8.57;;;3.75;;
63259;SDS011;49390;51.380;0.098;2022-11-03T12:16:58;9.50;;;5.20;;
63259;SDS011;49390;51.380;0.098;2022-11-03T12:19:49;7.78;;;3.95;;
63259;SDS011;49390;51.380;0.098;2022-11-03T12:24:57;8.77;;;4.28;;
63259;SDS011;49390;51.380;0.098;2022-11-03T12:30:04;6.80;;;2.67;;
63259;SDS011;49390;51.380;0.098;2022-11-03T12:32:38;7.50;;;3.70;;
63259;SDS011;49390;51.380;0.098;2022-11-03T12:35:07;7.05;;;2.90;;
63259;SDS011;49390;51.380;0.098;2022-11-03T12:37:36;7.70;;;3.28;;
63259;SDS011;49390;51.380;0.098;2022-11-03T12:40:04;10.05;;;3.40;;
63259;SDS011;49390;51.380;0.098;2022-11-03T12:42:33;8.38;;;2.78;;
63259;SDS011;49390;51.380;0.098;2022-11-03T12:45:02;6.80;;;2.80;;
63259;SDS011;49390;51.380;0.098;2022-11-03T12:47:30;8.40;;;3.95;;
63259;SDS011;49390;51.380;0.098;2022-11-03T12:49:59;5.70;;;2.70;;
63259;SDS011;49390;51.380;0.098;2022-11-03T12:52:27;9.95;;;3.97;;
63259;SDS011;49390;51.380;0.098;2022-11-03T12:54:55;7.15;;;2.47;;
63259;SDS011;49390;51.380;0.098;2022-11-03T12:57:24;4.75;;;2.50;;
63259;SDS011;49390;51.380;0.098;2022-11-03T12:59:52;8.00;;;2.70;;
63259;SDS011;49390;51.380;0.098;2022-11-03T13:02:20;6.68;;;2.50;;
63259;SDS011;49390;51.380;0.098;2022-11-03T13:04:49;5.15;;;2.60;;
63259;SDS011;49390;51.380;0.098;2022-11-03T13:07:17;5.47;;;2.20;;
63259;SDS011;49390;51.380;0.098;2022-11-03T13:09:54;4.28;;;2.00;;
63259;SDS011;49390;51.380;0.098;2022-11-03T13:12:23;8.57;;;2.25;;
63259;SDS011;49390;51.380;0.098;2022-11-03T13:15:03;6.65;;;2.80;;
63259;SDS011;49390;51.380;0.098;2022-11-03T13:17:33;7.93;;;2.55;;
63259;SDS011;49390;51.380;0.098;2022-11-03T13:20:21;5.90;;;2.40;;
63259;SDS011;49390;51.380;0.098;2022-11-03T13:22:50;5.28;;;2.53;;
63259;SDS011;49390;51.380;0.098;2022-11-03T13:25:19;3.53;;;1.65;;
63259;SDS011;49390;51.380;0.098;2022-11-03T13:27:51;5.47;;;2.60;;
63259;SDS011;49390;51.380;0.098;2022-11-03T13:30:21;4.88;;;1.90;;
63259;SDS011;49390;51.380;0.098;2022-11-03T13:32:53;7.15;;;2.33;;
63259;SDS011;49390;51.380;0.098;2022-11-03T13:35:22;7.63;;;2.78;;
63259;SDS011;49390;51.380;0.098;2022-11-03T13:37:53;6.60;;;2.40;;
63259;SDS011;49390;51.380;0.098;2022-11-03T13:40:21;5.03;;;2.10;;
63259;SDS011;49390;51.380;0.098;2022-11-03T13:43:09;6.00;;;2.35;;
63259;SDS011;49390;51.380;0.098;2022-11-03T13:45:38;5.28;;;1.90;;
63259;SDS011;49390;51.380;0.098;2022-11-03T13:48:07;7.10;;;2.42;;
63259;SDS011;49390;51.380;0.098;2022-11-03T13:50:55;7.35;;;2.00;;
63259;SDS011;49390;51.380;0.098;2022-11-03T13:53:23;6.80;;;2.50;;
63259;SDS011;49390;51.380;0.098;2022-11-03T13:56:12;4.97;;;2.10;;
63259;SDS011;49390;51.380;0.098;2022-11-03T13:58:48;5.07;;;2.10;;
63259;SDS011;49390;51.380;0.098;2022-11-03T14:01:37;5.88;;;2.50;;
63259;SDS011;49390;51.380;0.098;2022-11-03T14:04:07;4.50;;;2.20;;
63259;SDS011;49390;51.380;0.098;2022-11-03T14:06:56;3.75;;;2.10;;
63259;SDS011;49390;51.380;0.098;2022-11-03T14:09:25;7.18;;;2.53;;
63259;SDS011;49390;51.380;0.098;2022-11-03T14:11:53;5.32;;;1.98;;
63259;SDS011;49390;51.380;0.098;2022-11-03T14:14:40;7.72;;;2.80;;
63259;SDS011;49390;51.380;0.098;2022-11-03T14:17:09;5.68;;;2.50;;
63259;SDS011;49390;51.380;0.098;2022-11-03T14:19:37;4.65;;;2.30;;
63259;SDS011;49390;51.380;0.098;2022-11-03T14:22:14;5.93;;;2.60;;
63259;SDS011;49390;51.380;0.098;2022-11-03T14:24:42;6.43;;;2.60;;
63259;SDS011;49390;51.380;0.098;2022-11-03T14:27:14;6.65;;;3.15;;
63259;SDS011;49390;51.380;0.098;2022-11-03T14:29:43;9.18;;;2.90;;
63259;SDS011;49390;51.380;0.098;2022-11-03T14:32:12;10.77;;;3.30;;
63259;SDS011;49390;51.380;0.098;2022-11-03T14:34:41;7.50;;;3.38;;
63259;SDS011;49390;51.380;0.098;2022-11-03T14:37:10;9.45;;;3.72;;
63259;SDS011;49390;51.380;0.098;2022-11-03T14:39:40;9.55;;;3.85;;
63259;SDS011;49390;51.380;0.098;2022-11-03T14:42:09;8.02;;;3.60;;
63259;SDS011;49390;51.380;0.098;2022-11-03T14:44:42;8.75;;;3.63;;
63259;SDS011;49390;51.380;0.098;2022-11-03T14:47:14;9.48;;;3.50;;
63259;SDS011;49390;51.380;0.098;2022-11-03T14:49:50;8.30;;;3.50;;
63259;SDS011;49390;51.380;0.098;2022-11-03T14:52:20;8.60;;;3.70;;
63259;SDS011;49390;51.380;0.098;2022-11-03T14:54:48;8.63;;;3.45;;
63259;SDS011;49390;51.380;0.098;2022-11-03T14:57:18;9.98;;;2.80;;
63259;SDS011;49390;51.380;0.098;2022-11-03T14:59:47;7.85;;;3.15;;
63259;SDS011;49390;51.380;0.098;2022-11-03T15:02:23;6.55;;;2.92;;
63259;SDS011;49390;51.380;0.098;2022-11-03T15:04:52;6.03;;;2.60;;
63259;SDS011;49390;51.380;0.098;2022-11-03T15:07:23;6.18;;;3.13;;
63259;SDS011;49390;51.380;0.098;2022-11-03T15:09:51;7.13;;;2.63;;
63259;SDS011;49390;51.380;0.098;2022-11-03T15:12:19;5.97;;;2.53;;
63259;SDS011;49390;51.380;0.098;2022-11-03T15:14:48;6.53;;;2.88;;
63259;SDS011;49390;51.380;0.098;2022-11-03T15:17:15;7.50;;;2.60;;
63259;SDS011;49390;51.380;0.098;2022-11-03T15:19:43;6.38;;;2.63;;
63259;SDS011;49390;51.380;0.098;2022-11-03T15:22:12;6.25;;;2.30;;
63259;SDS011;49390;51.380;0.098;2022-11-03T15:24:39;7.30;;;2.45;;
63259;SDS011;49390;51.380;0.098;2022-11-03T15:27:28;7.05;;;2.75;;
63259;SDS011;49390;51.380;0.098;2022-11-03T15:29:56;5.35;;;2.42;;
63259;SDS011;49390;51.380;0.098;2022-11-03T15:32:26;6.70;;;2.60;;
63259;SDS011;49390;51.380;0.098;2022-11-03T15:35:03;5.68;;;2.40;;
63259;SDS011;49390;51.380;0.098;2022-11-03T15:37:32;8.00;;;2.42;;
63259;SDS011;49390;51.380;0.098;2022-11-03T15:40:00;7.13;;;2.55;;
63259;SDS011;49390;51.380;0.098;2022-11-03T15:42:28;7.00;;;2.67;;
63259;SDS011;49390;51.380;0.098;2022-11-03T15:44:56;6.75;;;2.70;;
63259;SDS011;49390;51.380;0.098;2022-11-03T15:47:25;6.68;;;2.40;;
63259;SDS011;49390;51.380;0.098;2022-11-03T15:49:53;7.88;;;2.83;;
63259;SDS011;49390;51.380;0.098;2022-11-03T15:52:21;6.53;;;2.85;;
63259;SDS011;49390;51.380;0.098;2022-11-03T15:54:52;8.40;;;2.90;;
63259;SDS011;49390;51.380;0.098;2022-11-03T15:57:20;9.32;;;3.20;;
63259;SDS011;49390;51.380;0.098;2022-11-03T15:59:49;6.78;;;2.70;;
63259;SDS011;49390;51.380;0.098;2022-11-03T16:02:23;12.52;;;3.80;;
63259;SDS011;49390;51.380;0.098;2022-11-03T16:05:08;6.65;;;2.75;;
63259;SDS011;49390;51.380;0.098;2022-11-03T16:07:38;7.40;;;2.80;;
63259;SDS011;49390;51.380;0.098;2022-11-03T16:10:06;10.80;;;2.97;;
63259;SDS011;49390;51.380;0.098;2022-11-03T16:12:35;8.77;;;3.17;;
63259;SDS011;49390;51.380;0.098;2022-11-03T16:15:04;8.50;;;2.90;;
63259;SDS011;49390;51.380;0.098;2022-11-03T16:17:33;10.07;;;2.80;;
63259;SDS011;49390;51.380;0.098;2022-11-03T16:20:02;6.78;;;2.50;;
63259;SDS011;49390;51.380;0.098;2022-11-03T16:22:30;10.27;;;3.05;;
63259;SDS011;49390;51.380;0.098;2022-11-03T16:24:58;7.53;;;3.00;;
63259;SDS011;49390;51.380;0.098;2022-11-03T16:27:29;9.07;;;3.47;;
63259;SDS011;49390;51.380;0.098;2022-11-03T16:29:57;7.97;;;2.92;;
63259;SDS011;49390;51.380;0.098;2022-11-03T16:32:25;9.35;;;3.03;;
63259;SDS011;49390;51.380;0.098;2022-11-03T16:34:53;8.52;;;2.90;;
63259;SDS011;49390;51.380;0.098;2022-11-03T16:37:21;5.55;;;3.15;;
63259;SDS011;49390;51.380;0.098;2022-11-03T16:39:50;8.13;;;3.15;;
63259;SDS011;49390;51.380;0.098;2022-11-03T16:42:18;7.10;;;3.25;;
63259;SDS011;49390;51.380;0.098;2022-11-03T16:44:46;7.50;;;3.25;;
63259;SDS011;49390;51.380;0.098;2022-11-03T16:47:14;7.95;;;3.40;;
63259;SDS011;49390;51.380;0.098;2022-11-03T16:49:43;7.70;;;3.42;;
63259;SDS011;49390;51.380;0.098;2022-11-03T16:52:10;9.95;;;3.47;;
63259;SDS011;49390;51.380;0.098;2022-11-03T16:54:40;8.73;;;3.47;;
63259;SDS011;49390;51.380;0.098;2022-11-03T16:57:07;6.93;;;3.20;;
63259;SDS011;49390;51.380;0.098;2022-11-03T16:59:36;7.15;;;3.17;;
63259;SDS011;49390;51.380;0.098;2022-11-03T17:02:04;10.07;;;3.40;;
63259;SDS011;49390;51.380;0.098;2022-11-03T17:04:37;8.70;;;3.63;;